Time;durP1;ratioP1;P1;durP2;ratioP2;P2;SDS_P1;SDS_P2;PMS_P1;PMS_P2;Temp;Humidity;BMP_temperature;BMP_pressure;BME280_temperature;BME280_humidity;BME280_pressure;Samples;Min_cycle;Max_cycle;Signal;HPM_P1;HPM_P2
2022/06/24 00:02:28;;;;;;;6.78;1.20;;;14.30;99.90;;;;;;5048787;28;20242;-74
2022/06/24 00:04:59;;;;;;;3.28;0.80;;;14.40;99.90;;;;;;5048309;28;20225;-75
2022/06/24 00:07:31;;;;;;;3.35;1.10;;;14.50;99.90;;;;;;5053023;28;20205;-74
2022/06/24 00:10:03;;;;;;;3.40;1.25;;;14.60;99.90;;;;;;5053749;28;20190;-75
2022/06/24 00:12:34;;;;;;;1.95;0.90;;;14.60;99.90;;;;;;5044629;28;20190;-74
2022/06/24 00:15:05;;;;;;;2.20;0.68;;;14.80;99.90;;;;;;5049706;28;20571;-74
2022/06/24 00:17:36;;;;;;;0.55;0.50;;;14.80;99.90;;;;;;5049621;28;20259;-75
2022/06/24 00:20:09;;;;;;;3.13;0.88;;;15.00;99.90;;;;;;5053029;28;20205;-75
2022/06/24 00:22:45;;;;;;;2.03;0.90;;;15.00;99.90;;;;;;5047262;28;20194;-73
2022/06/24 00:25:20;;;;;;;1.90;0.75;;;15.10;99.90;;;;;;5042817;28;20213;-74
2022/06/24 00:28:03;;;;;;;1.17;0.60;;;15.10;99.90;;;;;;5049886;28;20197;-77
2022/06/24 00:30:39;;;;;;;2.10;0.50;;;15.20;99.90;;;;;;5042319;28;20198;-77
2022/06/24 00:33:14;;;;;;;4.18;0.63;;;15.20;99.90;;;;;;5050111;28;20201;-74
2022/06/24 00:35:47;;;;;;;3.50;0.88;;;15.20;99.90;;;;;;5048331;28;20200;-75
2022/06/24 00:38:28;;;;;;;3.25;0.90;;;15.40;99.90;;;;;;5048613;28;20265;-74
2022/06/24 00:41:04;;;;;;;8.90;1.58;;;15.50;99.90;;;;;;5041737;28;20704;-74
2022/06/24 00:43:40;;;;;;;2.90;0.82;;;15.60;99.90;;;;;;5049407;28;20204;-78
2022/06/24 00:46:14;;;;;;;3.03;0.82;;;15.70;99.90;;;;;;5050275;28;20213;-74
2022/06/24 00:48:50;;;;;;;2.65;0.90;;;15.80;99.90;;;;;;5044520;28;20629;-73
2022/06/24 00:51:22;;;;;;;20.50;11.85;;;15.90;99.90;;;;;;5042448;28;20185;-74
2022/06/24 00:53:54;;;;;;;31.13;18.55;;;16.00;99.90;;;;;;5048856;28;20193;-73
2022/06/24 00:56:29;;;;;;;17.52;9.73;;;16.10;99.90;;;;;;5045579;28;20197;-75
2022/06/24 00:59:01;;;;;;;10.00;5.25;;;16.10;99.90;;;;;;5049984;28;20544;-75
2022/06/24 01:01:33;;;;;;;10.07;5.68;;;16.00;99.90;;;;;;5051167;28;20205;-75
2022/06/24 01:04:07;;;;;;;2.60;1.92;;;16.20;99.90;;;;;;5049471;28;20190;-76
2022/06/24 01:06:39;;;;;;;3.25;1.73;;;16.30;99.90;;;;;;5038179;28;20281;-75
2022/06/24 01:09:10;;;;;;;4.22;1.90;;;16.30;99.90;;;;;;5050096;28;20657;-74
2022/06/24 01:11:43;;;;;;;2.10;1.20;;;16.40;99.90;;;;;;5044645;28;20213;-75
2022/06/24 01:14:15;;;;;;;2.38;1.20;;;16.40;99.90;;;;;;5047864;28;20193;-73
2022/06/24 01:16:46;;;;;;;2.17;0.88;;;16.40;99.90;;;;;;5050666;28;20272;-74
2022/06/24 01:19:18;;;;;;;1.58;0.82;;;16.30;99.90;;;;;;5041810;28;20622;-74
2022/06/24 01:21:51;;;;;;;1.52;0.90;;;16.40;99.90;;;;;;5044672;28;20589;-74
2022/06/24 01:24:23;;;;;;;2.80;0.70;;;16.50;99.90;;;;;;5046246;28;20198;-75
2022/06/24 01:26:55;;;;;;;1.20;0.50;;;16.50;99.90;;;;;;5047679;28;20194;-73
2022/06/24 01:29:26;;;;;;;1.63;0.70;;;16.60;99.90;;;;;;5043128;28;20738;-73
2022/06/24 01:31:57;;;;;;;1.48;0.70;;;16.70;99.90;;;;;;5046468;28;20193;-73
2022/06/24 01:34:28;;;;;;;1.05;0.70;;;16.70;99.90;;;;;;5041184;28;20194;-73
2022/06/24 01:37:01;;;;;;;1.35;0.68;;;16.70;99.90;;;;;;5056423;22;20233;-76
2022/06/24 01:39:32;;;;;;;1.25;0.85;;;16.90;99.90;;;;;;5050925;28;20672;-75
2022/06/24 01:42:03;;;;;;;2.78;0.93;;;16.90;99.90;;;;;;5059853;28;20193;-78
2022/06/24 01:44:34;;;;;;;3.10;0.57;;;17.00;99.90;;;;;;5053590;28;20201;-75
2022/06/24 01:47:05;;;;;;;0.95;0.50;;;17.00;99.90;;;;;;5056156;28;20746;-76
2022/06/24 01:49:35;;;;;;;2.65;0.75;;;17.10;99.90;;;;;;5053093;28;20197;-74
2022/06/24 01:52:08;;;;;;;3.03;1.00;;;17.10;99.90;;;;;;5057246;28;20193;-76
2022/06/24 01:54:39;;;;;;;2.03;0.63;;;17.20;99.90;;;;;;5053813;28;20201;-75
2022/06/24 01:57:10;;;;;;;2.00;0.60;;;17.20;99.90;;;;;;5060204;28;20193;-75
2022/06/24 01:59:40;;;;;;;2.42;0.60;;;17.30;99.90;;;;;;5057262;28;20279;-75
2022/06/24 02:02:11;;;;;;;3.20;0.75;;;17.40;99.90;;;;;;5049201;28;20193;-76
2022/06/24 02:04:43;;;;;;;3.42;1.02;;;17.30;99.90;;;;;;5052190;28;20202;-75
2022/06/24 02:07:15;;;;;;;1.90;0.90;;;17.40;99.90;;;;;;5066112;28;20377;-75
2022/06/24 02:15:19;;;;;;;2.60;0.70;;;17.40;99.90;;;;;;5055149;28;20212;-75
2022/06/24 02:17:49;;;;;;;2.33;0.80;;;17.30;99.90;;;;;;5062736;28;20193;-74
2022/06/24 02:20:20;;;;;;;1.75;0.68;;;17.40;99.90;;;;;;5060624;28;20200;-76
2022/06/24 02:22:53;;;;;;;1.08;0.43;;;17.50;99.90;;;;;;5057572;28;20205;-75
2022/06/24 02:25:23;;;;;;;1.52;0.90;;;17.50;99.90;;;;;;5066050;28;20224;-75
2022/06/24 02:27:54;;;;;;;1.80;0.70;;;17.50;99.90;;;;;;5056759;28;20195;-74
2022/06/24 02:30:25;;;;;;;1.35;0.60;;;17.70;99.90;;;;;;5054649;28;20189;-75
2022/06/24 02:32:56;;;;;;;1.73;0.68;;;17.80;99.90;;;;;;5053431;28;20251;-75
2022/06/24 02:35:27;;;;;;;1.48;0.70;;;17.90;99.90;;;;;;5054585;28;20697;-77
2022/06/24 02:38:00;;;;;;;4.80;1.00;;;17.90;99.90;;;;;;5041263;28;20701;-75
2022/06/24 02:40:49;;;;;;;4.72;1.20;;;17.80;99.90;;;;;;5044484;28;20197;-74
2022/06/24 02:43:20;;;;;;;2.50;0.70;;;17.90;99.90;;;;;;5037799;28;20292;-79
2022/06/24 02:45:52;;;;;;;2.33;0.70;;;18.00;99.90;;;;;;5037861;28;20214;-76
2022/06/24 02:48:24;;;;;;;1.98;0.95;;;18.00;99.90;;;;;;5036150;28;20555;-75
2022/06/24 02:50:55;;;;;;;2.50;1.25;;;18.00;99.90;;;;;;5037721;28;20197;-80
2022/06/24 02:53:29;;;;;;;4.40;0.88;;;18.10;99.90;;;;;;5029038;28;20190;-74
2022/06/24 02:56:00;;;;;;;2.25;0.77;;;18.10;99.90;;;;;;5036336;28;20194;-76
2022/06/24 02:58:32;;;;;;;3.80;0.70;;;18.00;99.90;;;;;;5034480;28;20202;-74
2022/06/24 03:01:02;;;;;;;6.35;0.90;;;18.00;99.90;;;;;;5035516;28;20206;-80
2022/06/24 03:03:33;;;;;;;3.38;0.88;;;17.90;99.90;;;;;;5036338;28;20646;-73
2022/06/24 03:06:05;;;;;;;3.22;0.90;;;17.90;99.90;;;;;;5039090;28;20214;-75
2022/06/24 03:08:37;;;;;;;1.45;0.75;;;17.80;99.90;;;;;;5031313;28;20203;-73
2022/06/24 03:11:08;;;;;;;4.40;1.00;;;18.00;99.90;;;;;;5024190;28;20228;-76
2022/06/24 03:13:39;;;;;;;3.60;1.20;;;18.10;99.90;;;;;;5035437;28;20202;-74
2022/06/24 03:16:09;;;;;;;2.33;0.75;;;18.20;99.90;;;;;;5035720;28;20186;-83
2022/06/24 03:18:40;;;;;;;1.55;0.70;;;18.20;99.90;;;;;;5034560;28;20217;-75
2022/06/24 03:21:11;;;;;;;3.80;0.90;;;18.30;99.90;;;;;;5036009;28;20191;-80
2022/06/24 03:23:43;;;;;;;2.70;0.70;;;18.40;99.90;;;;;;5035460;28;20190;-75
2022/06/24 03:26:14;;;;;;;5.13;0.85;;;18.50;99.90;;;;;;5028084;28;20693;-73
2022/06/24 03:28:45;;;;;;;1.88;0.70;;;18.60;99.90;;;;;;5046532;28;20198;-73
2022/06/24 03:31:17;;;;;;;1.13;0.73;;;18.60;99.90;;;;;;5035251;28;20201;-73
2022/06/24 03:33:48;;;;;;;3.78;0.70;;;18.60;99.90;;;;;;5034316;28;20281;-76
2022/06/24 03:36:18;;;;;;;1.77;0.90;;;18.60;99.90;;;;;;5027389;28;20611;-75
2022/06/24 03:38:51;;;;;;;1.30;0.52;;;18.60;99.90;;;;;;5040314;28;20198;-74
2022/06/24 03:41:22;;;;;;;2.38;0.50;;;18.70;99.90;;;;;;5034862;28;20202;-75
2022/06/24 03:43:53;;;;;;;1.25;0.60;;;18.60;99.90;;;;;;5037582;28;20206;-74
2022/06/24 03:46:23;;;;;;;1.17;0.77;;;18.60;99.90;;;;;;5037216;28;20236;-74
2022/06/24 03:48:54;;;;;;;2.70;0.80;;;18.50;99.90;;;;;;5045220;28;20559;-74
2022/06/24 03:51:25;;;;;;;1.85;0.50;;;18.50;99.90;;;;;;5048976;28;20197;-77
2022/06/24 03:53:57;;;;;;;3.45;0.65;;;18.50;99.90;;;;;;5055315;28;20194;-77
2022/06/24 03:56:28;;;;;;;1.17;0.52;;;18.50;99.90;;;;;;5045767;28;20213;-77
2022/06/24 03:59:00;;;;;;;0.95;0.50;;;18.50;99.90;;;;;;5036316;28;20201;-80
2022/06/24 04:01:31;;;;;;;1.20;0.60;;;18.40;99.90;;;;;;5034367;28;20209;-79
2022/06/24 04:04:02;;;;;;;0.88;0.60;;;18.30;99.90;;;;;;5034128;28;20194;-79
2022/06/24 04:06:33;;;;;;;1.73;0.90;;;18.30;99.90;;;;;;5029619;28;20305;-76
2022/06/24 04:09:06;;;;;;;2.67;0.68;;;18.40;99.90;;;;;;5035096;28;20210;-74
2022/06/24 04:11:37;;;;;;;3.05;0.57;;;18.30;99.90;;;;;;5015228;28;20195;-74
2022/06/24 04:14:07;;;;;;;1.27;0.50;;;18.30;99.90;;;;;;5034653;28;20186;-79
2022/06/24 04:16:38;;;;;;;0.60;0.60;;;18.20;99.90;;;;;;5037012;28;20202;-76
2022/06/24 04:19:09;;;;;;;1.25;0.50;;;18.20;99.90;;;;;;5033961;28;20194;-77
2022/06/24 04:21:39;;;;;;;1.98;0.70;;;18.10;99.90;;;;;;5037209;28;20194;-76
2022/06/24 04:24:12;;;;;;;2.08;0.60;;;18.00;99.90;;;;;;5020264;28;20194;-77
2022/06/24 04:26:43;;;;;;;2.15;0.70;;;18.00;99.90;;;;;;5032858;28;20305;-76
2022/06/24 04:29:13;;;;;;;2.10;0.55;;;17.90;99.90;;;;;;5040641;28;20202;-76
2022/06/24 04:31:44;;;;;;;2.30;0.70;;;17.90;99.90;;;;;;5043851;28;20209;-78
2022/06/24 04:34:15;;;;;;;1.55;0.70;;;17.90;99.90;;;;;;5039463;28;20202;-78
2022/06/24 04:36:45;;;;;;;1.30;0.73;;;17.80;99.90;;;;;;5037511;28;20248;-76
2022/06/24 04:39:18;;;;;;;4.78;2.03;;;17.80;99.90;;;;;;5043411;28;20202;-76
2022/06/24 04:41:49;;;;;;;2.35;0.88;;;17.80;99.90;;;;;;5032017;28;20199;-77
2022/06/24 04:44:19;;;;;;;1.00;0.70;;;17.80;99.90;;;;;;5034719;28;20217;-77
2022/06/24 04:46:50;;;;;;;5.82;1.05;;;17.70;99.90;;;;;;5045149;28;20214;-77
2022/06/24 04:49:20;;;;;;;3.13;1.00;;;17.60;99.90;;;;;;5036407;28;20213;-77
2022/06/24 04:51:51;;;;;;;1.88;0.82;;;17.60;99.90;;;;;;5034320;28;20198;-76
2022/06/24 04:54:24;;;;;;;6.65;1.33;;;17.60;99.90;;;;;;5037270;28;20194;-76
2022/06/24 04:56:55;;;;;;;2.35;0.90;;;17.60;99.90;;;;;;5032928;28;20237;-77
2022/06/24 04:59:26;;;;;;;2.83;1.17;;;17.60;99.90;;;;;;5030486;28;20201;-77
2022/06/24 05:01:56;;;;;;;3.67;1.20;;;17.50;99.90;;;;;;5036729;28;20193;-78
2022/06/24 05:04:27;;;;;;;3.00;1.02;;;17.50;99.90;;;;;;5034106;28;20207;-82
2022/06/24 05:06:58;;;;;;;5.15;2.10;;;17.50;99.90;;;;;;5039915;28;20210;-85
2022/06/24 05:09:30;;;;;;;2.67;0.95;;;17.50;99.90;;;;;;5027206;28;20216;-76
2022/06/24 05:12:01;;;;;;;1.33;0.82;;;17.40;99.90;;;;;;5025723;28;20210;-81
2022/06/24 05:14:33;;;;;;;2.45;0.90;;;17.50;99.90;;;;;;5026856;28;20209;-77
2022/06/24 05:17:04;;;;;;;2.15;1.00;;;17.50;99.90;;;;;;5033616;28;20226;-76
2022/06/24 05:19:34;;;;;;;5.93;0.80;;;17.40;99.90;;;;;;5040956;28;20202;-77
2022/06/24 05:22:05;;;;;;;1.73;0.90;;;17.40;99.90;;;;;;5050134;28;20655;-75
2022/06/24 05:24:38;;;;;;;3.28;1.10;;;17.20;99.90;;;;;;5034950;28;20205;-79
2022/06/24 05:27:09;;;;;;;4.70;1.40;;;17.20;99.90;;;;;;5024438;28;20220;-76
2022/06/24 05:29:39;;;;;;;2.25;1.10;;;17.20;99.90;;;;;;5031602;28;20657;-76
2022/06/24 05:32:10;;;;;;;5.10;1.23;;;17.10;99.90;;;;;;5028332;28;20201;-78
2022/06/24 05:34:41;;;;;;;3.15;1.02;;;17.10;99.90;;;;;;5033171;28;20198;-76
2022/06/24 05:37:12;;;;;;;4.90;1.10;;;17.00;99.90;;;;;;5043238;28;20234;-75
2022/06/24 05:39:44;;;;;;;2.97;1.00;;;17.00;99.90;;;;;;5031953;28;20202;-77
2022/06/24 05:42:15;;;;;;;2.88;1.10;;;16.90;99.90;;;;;;5029094;28;20190;-76
2022/06/24 05:44:46;;;;;;;4.40;1.05;;;16.90;99.90;;;;;;5033817;28;20210;-76
2022/06/24 05:47:16;;;;;;;4.60;1.15;;;16.80;99.90;;;;;;5028269;28;20211;-76
2022/06/24 05:49:47;;;;;;;4.25;0.95;;;16.80;99.90;;;;;;5014001;28;20202;-77
2022/06/24 05:55:02;;;;;;;4.28;1.30;;;16.60;99.90;;;;;;5031169;28;20228;-78
2022/06/24 05:55:09;;;;;;;2.58;1.08;;;16.60;99.90;;;;;;5052341;28;20244;-76
2022/06/24 05:57:40;;;;;;;3.58;1.20;;;16.50;99.90;;;;;;5046287;28;20272;-77
2022/06/24 06:00:11;;;;;;;3.63;1.00;;;16.40;99.90;;;;;;5033130;28;20198;-77
2022/06/24 06:02:42;;;;;;;3.42;1.33;;;16.30;99.90;;;;;;5033194;28;20190;-76
2022/06/24 06:05:13;;;;;;;1.65;1.20;;;16.30;99.90;;;;;;5034301;28;20205;-77
2022/06/24 06:07:43;;;;;;;4.72;2.20;;;16.20;99.90;;;;;;5038338;28;20218;-77
2022/06/24 06:10:16;;;;;;;6.00;2.40;;;16.10;99.90;;;;;;5040130;28;20672;-77
2022/06/24 06:12:47;;;;;;;3.28;2.38;;;16.10;99.90;;;;;;5028800;28;20217;-77
2022/06/24 06:15:17;;;;;;;3.33;2.03;;;16.00;99.90;;;;;;5030456;28;20210;-77
2022/06/24 06:17:48;;;;;;;3.83;1.70;;;16.00;99.90;;;;;;5030900;28;20205;-76
2022/06/24 06:20:19;;;;;;;3.70;1.52;;;15.90;99.90;;;;;;5032987;28;20202;-76
2022/06/24 06:22:49;;;;;;;4.47;2.30;;;15.90;99.90;;;;;;5031432;28;20662;-77
2022/06/24 06:25:22;;;;;;;4.13;1.60;;;15.90;99.90;;;;;;5030620;28;20556;-77
2022/06/24 06:27:53;;;;;;;3.42;1.30;;;15.80;99.90;;;;;;5029459;28;20232;-76
2022/06/24 06:30:24;;;;;;;5.07;1.10;;;15.80;99.90;;;;;;5032587;28;20589;-79
2022/06/24 06:32:55;;;;;;;2.83;1.15;;;15.80;99.90;;;;;;5031583;28;20210;-77
2022/06/24 06:35:26;;;;;;;1.75;1.10;;;15.90;99.90;;;;;;5033292;28;20596;-76
2022/06/24 06:37:57;;;;;;;2.88;0.88;;;15.90;99.90;;;;;;5023484;28;20644;-75
2022/06/24 06:40:29;;;;;;;5.75;1.20;;;16.00;99.90;;;;;;5034867;28;20556;-76
2022/06/24 06:43:00;;;;;;;3.70;1.00;;;16.00;99.90;;;;;;5034716;28;20194;-76
2022/06/24 06:45:31;;;;;;;4.95;1.05;;;16.00;99.90;;;;;;5032335;28;20248;-75
2022/06/24 06:48:02;;;;;;;2.58;1.25;;;15.90;99.90;;;;;;5034472;28;20708;-75
2022/06/24 06:50:34;;;;;;;2.85;1.30;;;15.90;99.90;;;;;;5045003;28;20190;-76
2022/06/24 06:53:04;;;;;;;2.63;1.40;;;15.80;99.90;;;;;;5043934;28;20669;-76
2022/06/24 06:55:37;;;;;;;1.88;1.33;;;15.80;99.90;;;;;;5035865;28;20668;-75
2022/06/24 06:58:07;;;;;;;3.53;1.90;;;15.70;99.90;;;;;;5047031;28;20591;-75
2022/06/24 07:00:38;;;;;;;3.13;1.70;;;15.60;99.90;;;;;;5042968;28;20202;-76
2022/06/24 07:03:09;;;;;;;2.22;1.38;;;15.50;99.90;;;;;;5033610;28;20199;-76
2022/06/24 07:05:42;;;;;;;2.35;1.08;;;15.60;99.90;;;;;;5035748;28;20666;-75
2022/06/24 07:08:13;;;;;;;3.22;1.00;;;15.80;99.90;;;;;;5032199;28;20246;-76
2022/06/24 07:10:46;;;;;;;2.00;0.80;;;15.90;99.90;;;;;;5017088;28;20206;-74
2022/06/24 07:13:17;;;;;;;4.50;1.30;;;16.10;99.90;;;;;;5039419;28;20189;-75
2022/06/24 07:15:48;;;;;;;2.53;0.85;;;16.30;99.90;;;;;;5050549;28;20194;-76
2022/06/24 07:18:18;;;;;;;2.15;0.70;;;16.30;99.90;;;;;;5035989;28;20229;-74
2022/06/24 07:20:49;;;;;;;1.33;0.70;;;16.30;99.90;;;;;;5041253;28;20197;-75
2022/06/24 07:23:20;;;;;;;2.67;0.80;;;16.40;99.90;;;;;;5048582;28;20664;-75
2022/06/24 07:25:52;;;;;;;1.67;0.80;;;16.40;99.90;;;;;;5032688;28;20194;-74
2022/06/24 07:28:24;;;;;;;2.72;1.25;;;16.40;99.90;;;;;;5044390;28;20209;-75
2022/06/24 07:30:55;;;;;;;1.77;0.65;;;16.30;99.90;;;;;;5052778;28;20235;-75
2022/06/24 07:33:26;;;;;;;1.17;0.55;;;16.30;99.90;;;;;;5036785;28;20187;-75
2022/06/24 07:35:56;;;;;;;1.58;0.70;;;16.20;99.90;;;;;;5039402;28;20245;-75
2022/06/24 07:38:27;;;;;;;5.07;0.80;;;16.20;99.90;;;;;;5047783;28;20539;-75
2022/06/24 07:41:00;;;;;;;1.13;0.75;;;16.10;99.90;;;;;;5042892;28;20190;-76
2022/06/24 07:43:30;;;;;;;0.88;0.60;;;16.10;99.90;;;;;;5044251;28;20201;-76
2022/06/24 07:46:01;;;;;;;3.90;0.80;;;16.00;99.90;;;;;;5055285;28;20193;-76
2022/06/24 07:48:32;;;;;;;1.98;1.30;;;15.90;99.90;;;;;;5049449;28;20218;-75
2022/06/24 07:51:12;;;;;;;2.22;1.42;;;15.80;99.90;;;;;;5035129;28;20665;-75
2022/06/24 07:53:43;;;;;;;4.70;1.40;;;15.70;99.90;;;;;;5035389;28;20209;-75
2022/06/24 07:59:02;;;;;;;3.28;1.60;;;15.60;99.90;;;;;;5031249;28;20205;-76
2022/06/24 08:01:33;;;;;;;2.85;1.70;;;15.50;99.90;;;;;;5034236;28;20206;-76
2022/06/24 08:04:07;;;;;;;3.30;1.60;;;15.40;99.90;;;;;;5040306;28;20209;-77
2022/06/24 08:06:39;;;;;;;5.43;1.50;;;15.30;99.90;;;;;;5040505;28;20213;-77
2022/06/24 08:09:10;;;;;;;3.75;1.67;;;15.20;99.90;;;;;;5021718;28;20195;-76
2022/06/24 08:11:43;;;;;;;4.90;1.83;;;15.10;99.90;;;;;;5033581;28;20190;-76
2022/06/24 08:14:14;;;;;;;3.55;1.50;;;15.10;99.90;;;;;;5017330;28;20195;-76
2022/06/24 08:16:45;;;;;;;3.55;1.80;;;15.00;99.90;;;;;;5034940;28;21237;-75
2022/06/24 08:19:16;;;;;;;3.75;1.88;;;15.00;99.90;;;;;;5043267;28;20210;-75
2022/06/24 08:21:47;;;;;;;3.15;1.88;;;14.90;99.90;;;;;;5048609;28;20186;-76
2022/06/24 08:24:17;;;;;;;5.78;1.90;;;14.90;99.90;;;;;;5048545;28;20190;-75
2022/06/24 08:26:50;;;;;;;3.17;1.73;;;14.80;99.90;;;;;;5049094;28;20213;-77
2022/06/24 08:29:21;;;;;;;5.60;2.08;;;14.80;99.90;;;;;;5043514;28;20197;-76
2022/06/24 08:31:51;;;;;;;2.30;1.70;;;14.80;99.90;;;;;;5049087;28;20190;-75
2022/06/24 08:34:23;;;;;;;4.20;2.40;;;14.70;99.90;;;;;;5038653;28;20202;-75
2022/06/24 08:36:53;;;;;;;3.20;2.00;;;14.70;99.90;;;;;;5038485;28;20299;-75
2022/06/24 08:39:24;;;;;;;6.93;2.80;;;14.70;99.90;;;;;;5041508;28;20192;-74
2022/06/24 08:42:00;;;;;;;4.38;2.20;;;14.60;99.90;;;;;;5054421;28;20212;-75
2022/06/24 08:44:31;;;;;;;5.18;2.60;;;14.60;99.90;;;;;;5045573;28;20240;-75
2022/06/24 08:47:01;;;;;;;6.53;3.33;;;14.50;99.90;;;;;;5052320;28;20228;-75
2022/06/24 08:49:34;;;;;;;5.88;3.20;;;14.50;99.90;;;;;;5054084;28;20201;-75
2022/06/24 08:52:08;;;;;;;4.18;2.67;;;14.50;99.90;;;;;;5027959;28;20189;-75
2022/06/24 08:54:43;;;;;;;5.07;3.28;;;14.50;99.90;;;;;;5041693;28;20629;-76
2022/06/24 08:57:17;;;;;;;23.20;11.82;;;14.50;99.90;;;;;;5034263;28;20584;-75
2022/06/24 08:59:47;;;;;;;17.17;10.10;;;14.40;99.90;;;;;;5052881;28;20186;-73
2022/06/24 09:02:18;;;;;;;15.18;8.40;;;14.40;99.90;;;;;;5043941;28;20202;-72
2022/06/24 09:04:49;;;;;;;8.77;5.32;;;14.40;99.90;;;;;;5046622;28;20194;-73
2022/06/24 09:07:28;;;;;;;7.88;3.78;;;14.40;99.90;;;;;;5034709;28;20230;-72
2022/06/24 09:10:04;;;;;;;6.25;3.30;;;14.30;99.90;;;;;;5040646;28;20194;-72
2022/06/24 09:12:41;;;;;;;5.88;3.13;;;14.20;99.90;;;;;;5049964;28;20190;-72
2022/06/24 09:15:13;;;;;;;5.63;3.25;;;14.20;99.90;;;;;;5037787;28;20613;-73
2022/06/24 09:17:45;;;;;;;5.30;2.95;;;14.10;99.90;;;;;;5048016;28;20193;-72
2022/06/24 09:20:17;;;;;;;6.63;3.08;;;14.10;99.90;;;;;;5047059;28;20191;-77
2022/06/24 09:22:48;;;;;;;3.83;2.70;;;14.00;99.90;;;;;;5045699;28;20287;-74
2022/06/24 09:25:19;;;;;;;7.72;3.05;;;13.90;99.90;;;;;;5043656;28;20629;-73
2022/06/24 09:27:52;;;;;;;4.00;2.70;;;13.90;99.90;;;;;;5052618;28;20267;-73
2022/06/24 09:30:22;;;;;;;4.57;2.90;;;13.90;99.90;;;;;;5050595;28;20638;-74
2022/06/24 09:32:54;;;;;;;4.65;2.95;;;13.90;99.90;;;;;;5046093;28;20190;-73
2022/06/24 09:35:25;;;;;;;5.85;3.15;;;14.00;99.90;;;;;;5038606;28;20218;-73
2022/06/24 09:37:56;;;;;;;4.75;3.00;;;14.10;99.90;;;;;;5041150;28;20602;-73
2022/06/24 09:40:28;;;;;;;3.95;2.90;;;14.10;99.90;;;;;;5040399;28;20194;-76
2022/06/24 09:43:02;;;;;;;5.18;2.80;;;14.20;99.90;;;;;;5050723;28;20197;-75
2022/06/24 09:45:49;;;;;;;4.53;2.80;;;14.20;99.90;;;;;;5037958;28;20186;-73
2022/06/24 09:48:29;;;;;;;3.95;2.58;;;14.20;99.90;;;;;;5039566;28;20650;-74
2022/06/24 09:51:01;;;;;;;3.80;2.83;;;14.20;99.90;;;;;;5033032;28;20246;-79
2022/06/24 09:53:35;;;;;;;4.53;2.55;;;14.20;99.90;;;;;;5041559;28;20209;-73
2022/06/24 09:56:07;;;;;;;4.63;2.80;;;14.20;99.90;;;;;;5038239;28;20199;-73
2022/06/24 09:58:41;;;;;;;4.60;2.90;;;14.20;99.90;;;;;;5035722;28;20197;-74
2022/06/24 10:01:11;;;;;;;4.65;2.67;;;14.20;99.90;;;;;;5034042;28;20194;-74
2022/06/24 10:03:43;;;;;;;5.63;2.65;;;14.20;99.90;;;;;;5032772;28;20210;-75
2022/06/24 10:06:13;;;;;;;6.07;2.78;;;14.20;99.90;;;;;;5037831;28;20681;-77
2022/06/24 10:08:45;;;;;;;4.70;2.90;;;14.20;99.90;;;;;;5031908;28;20560;-75
2022/06/24 10:11:17;;;;;;;4.82;2.85;;;14.10;99.90;;;;;;5036786;28;20190;-75
2022/06/24 10:13:50;;;;;;;3.97;2.47;;;14.20;99.90;;;;;;5034200;28;20225;-73
2022/06/24 10:16:23;;;;;;;4.65;3.17;;;14.10;99.90;;;;;;5032734;28;20197;-74
2022/06/24 10:18:56;;;;;;;4.28;2.80;;;14.10;99.90;;;;;;5030241;28;20573;-72
2022/06/24 10:21:27;;;;;;;4.30;3.00;;;14.10;99.90;;;;;;5044241;28;20185;-77
2022/06/24 10:23:58;;;;;;;3.65;2.75;;;14.10;99.90;;;;;;5042826;28;20198;-77
2022/06/24 10:26:30;;;;;;;4.32;2.80;;;14.00;99.90;;;;;;5050421;28;20240;-73
2022/06/24 10:29:31;;;;;;;7.13;2.97;;;14.00;99.90;;;;;;5047664;28;20304;-74
2022/06/24 10:32:08;;;;;;;5.53;2.88;;;14.10;99.90;;;;;;5036671;28;20205;-74
2022/06/24 10:34:44;;;;;;;3.80;2.75;;;14.00;99.90;;;;;;5036193;28;20224;-74
2022/06/24 10:37:34;;;;;;;4.72;3.00;;;14.00;99.90;;;;;;5046389;28;20249;-73
2022/06/24 10:40:05;;;;;;;6.50;3.22;;;13.90;99.90;;;;;;5037175;28;20194;-73
2022/06/24 10:42:35;;;;;;;4.20;2.80;;;13.90;99.90;;;;;;5041409;28;20195;-73
2022/06/24 10:45:07;;;;;;;4.00;3.00;;;13.90;99.90;;;;;;5037253;28;20193;-74
2022/06/24 10:47:46;;;;;;;4.45;2.80;;;13.90;99.90;;;;;;5044411;28;20205;-74
2022/06/24 10:50:21;;;;;;;5.63;3.20;;;13.90;99.90;;;;;;5037164;28;20271;-75
2022/06/24 10:53:02;;;;;;;6.10;3.22;;;13.90;99.90;;;;;;5044047;28;20202;-75
2022/06/24 10:55:40;;;;;;;5.38;3.20;;;13.80;99.90;;;;;;5043594;28;20671;-74
2022/06/24 10:58:13;;;;;;;6.53;3.65;;;13.80;99.90;;;;;;5041553;28;20198;-74
2022/06/24 11:00:54;;;;;;;4.78;3.28;;;13.80;99.90;;;;;;5036295;28;20209;-73
2022/06/24 11:03:41;;;;;;;4.28;2.90;;;13.70;99.90;;;;;;5039441;28;20680;-73
2022/06/24 11:06:12;;;;;;;4.88;3.20;;;13.70;99.90;;;;;;5044782;28;20202;-73
2022/06/24 11:08:43;;;;;;;5.45;2.97;;;13.80;99.90;;;;;;5036709;28;20225;-74
2022/06/24 11:11:25;;;;;;;4.57;3.03;;;13.70;99.90;;;;;;5041256;28;20197;-74
2022/06/24 11:13:56;;;;;;;3.65;2.80;;;13.80;99.90;;;;;;5044189;28;20190;-73
2022/06/24 11:16:29;;;;;;;3.97;2.55;;;13.70;99.90;;;;;;5049883;28;20202;-75
2022/06/24 11:19:03;;;;;;;4.25;2.35;;;13.70;99.90;;;;;;5040769;28;20201;-80
2022/06/24 11:21:34;;;;;;;4.05;2.50;;;13.70;99.90;;;;;;5040413;28;20198;-73
2022/06/24 11:24:05;;;;;;;7.72;2.20;;;13.70;99.90;;;;;;5037871;28;20560;-79
2022/06/24 11:26:36;;;;;;;2.47;1.90;;;13.80;99.90;;;;;;5046107;28;20194;-74
2022/06/24 11:29:06;;;;;;;2.28;1.83;;;13.70;99.90;;;;;;5040946;28;20217;-73
2022/06/24 11:31:37;;;;;;;4.00;2.08;;;13.80;99.90;;;;;;5035014;28;20206;-73
2022/06/24 11:34:16;;;;;;;3.05;1.60;;;13.80;99.90;;;;;;5040103;28;20289;-73
2022/06/24 11:36:47;;;;;;;2.25;1.88;;;13.80;99.90;;;;;;5033427;28;20312;-75
2022/06/24 11:39:17;;;;;;;2.40;2.03;;;13.80;99.90;;;;;;5044028;28;20197;-73
2022/06/24 11:41:51;;;;;;;2.67;1.98;;;13.80;99.90;;;;;;5041399;28;20202;-76
2022/06/24 11:44:35;;;;;;;3.58;1.90;;;13.80;99.90;;;;;;5043535;28;21339;-78
2022/06/24 11:47:07;;;;;;;3.45;2.03;;;13.80;99.90;;;;;;5035898;28;20631;-77
2022/06/24 11:49:42;;;;;;;2.53;2.00;;;13.80;99.90;;;;;;5031825;28;20249;-73
2022/06/24 11:52:12;;;;;;;2.70;1.90;;;13.80;99.90;;;;;;5042215;28;20208;-76
2022/06/24 11:54:43;;;;;;;4.65;1.77;;;13.80;99.90;;;;;;5035122;28;20191;-73
2022/06/24 11:57:14;;;;;;;3.13;1.67;;;13.80;99.90;;;;;;5039036;28;20194;-76
2022/06/24 11:59:45;;;;;;;3.75;1.77;;;13.80;99.90;;;;;;5037349;28;20198;-75
2022/06/24 12:02:17;;;;;;;1.88;1.38;;;13.90;99.90;;;;;;5040950;28;20190;-73
2022/06/24 12:04:50;;;;;;;1.60;1.50;;;13.90;99.90;;;;;;5040902;28;20202;-74
2022/06/24 12:07:21;;;;;;;3.83;1.30;;;13.90;99.90;;;;;;5035829;28;20190;-74
2022/06/24 12:09:52;;;;;;;2.83;1.67;;;13.90;99.90;;;;;;5033985;28;20218;-80
2022/06/24 12:12:23;;;;;;;1.88;1.30;;;13.90;99.90;;;;;;5044460;28;20674;-80
2022/06/24 12:14:58;;;;;;;2.60;1.80;;;13.80;99.90;;;;;;5034409;28;20567;-77
2022/06/24 12:17:29;;;;;;;3.08;1.40;;;13.80;99.90;;;;;;5042831;28;20190;-79
2022/06/24 12:20:04;;;;;;;1.30;1.20;;;13.80;99.90;;;;;;5038516;28;20193;-80
2022/06/24 12:22:34;;;;;;;1.98;1.40;;;13.80;99.90;;;;;;5037418;28;20229;-73
2022/06/24 12:25:07;;;;;;;3.17;1.60;;;13.80;99.90;;;;;;5042445;28;20630;-74
2022/06/24 12:27:39;;;;;;;2.67;1.40;;;13.70;99.90;;;;;;5040772;28;20198;-77
2022/06/24 12:30:21;;;;;;;2.90;1.60;;;13.60;99.90;;;;;;5040417;28;20201;-74
2022/06/24 12:32:52;;;;;;;2.80;1.60;;;13.50;99.90;;;;;;5032393;28;20191;-76
2022/06/24 12:35:39;;;;;;;2.60;1.70;;;13.50;99.90;;;;;;5039538;28;20230;-74
2022/06/24 12:38:14;;;;;;;2.70;1.90;;;13.40;99.90;;;;;;5028513;28;20229;-75
2022/06/24 12:40:45;;;;;;;2.28;2.00;;;13.30;99.90;;;;;;5045997;28;20188;-73
2022/06/24 12:43:17;;;;;;;2.95;2.28;;;13.30;99.90;;;;;;5040254;28;20664;-73
2022/06/24 12:45:47;;;;;;;3.33;2.17;;;13.30;99.90;;;;;;5041207;28;20187;-75
2022/06/24 12:51:14;;;;;;;2.97;2.08;;;13.20;99.90;;;;;;5037687;28;20256;-74
2022/06/24 12:53:50;;;;;;;6.90;2.58;;;13.00;99.90;;;;;;5044183;28;20190;-75
2022/06/24 12:56:20;;;;;;;4.20;2.72;;;13.00;99.90;;;;;;5036994;28;20201;-74
2022/06/24 12:58:53;;;;;;;3.30;2.40;;;12.90;99.90;;;;;;5033418;28;20190;-77
2022/06/24 13:01:24;;;;;;;4.35;2.30;;;12.80;99.90;;;;;;5039980;28;20558;-75
2022/06/24 13:03:55;;;;;;;5.18;2.20;;;12.80;99.90;;;;;;5037464;28;20278;-74
2022/06/24 13:06:28;;;;;;;3.65;2.00;;;12.80;99.90;;;;;;5040870;28;20252;-74
2022/06/24 13:08:58;;;;;;;4.20;1.77;;;12.70;99.90;;;;;;5032759;28;20572;-76
2022/06/24 13:11:29;;;;;;;2.58;1.52;;;12.80;99.90;;;;;;5044318;28;20198;-73
2022/06/24 13:14:00;;;;;;;3.38;1.63;;;12.80;99.90;;;;;;5037026;28;20281;-74
2022/06/24 13:16:31;;;;;;;2.28;1.75;;;13.00;99.90;;;;;;5032149;28;20204;-76
2022/06/24 13:19:02;;;;;;;3.40;1.73;;;13.00;99.90;;;;;;5034055;28;20194;-76
2022/06/24 13:21:34;;;;;;;3.17;1.60;;;13.10;99.90;;;;;;5035164;28;20557;-73
2022/06/24 13:24:05;;;;;;;2.85;1.52;;;13.20;99.90;;;;;;5032333;28;20205;-75